createdAt,value
2022-10-31T00:01:18.916Z,9.50
2022-10-31T00:03:45.925Z,9.57
2022-10-31T00:06:12.901Z,10.20
2022-10-31T00:08:39.841Z,11.20
2022-10-31T00:11:10.765Z,9.05
2022-10-31T00:13:38.039Z,10.27
2022-10-31T00:16:05.484Z,9.45
2022-10-31T00:18:32.432Z,10.15
2022-10-31T00:21:00.943Z,9.88
2022-10-31T00:23:27.918Z,9.73
2022-10-31T00:25:54.889Z,9.35
2022-10-31T00:28:21.835Z,10.20
2022-10-31T00:30:48.696Z,9.65
2022-10-31T00:33:15.576Z,9.35
2022-10-31T00:35:42.991Z,9.82
2022-10-31T00:38:09.884Z,9.07
2022-10-31T00:40:36.935Z,9.38
2022-10-31T00:43:04.388Z,9.27
2022-10-31T00:45:31.838Z,8.25
2022-10-31T00:47:59.145Z,8.75
2022-10-31T00:50:26.305Z,7.85
2022-10-31T00:52:53.249Z,8.65
2022-10-31T00:55:20.200Z,9.25
2022-10-31T00:57:48.643Z,8.10
2022-10-31T01:00:16.440Z,8.23
2022-10-31T01:02:43.720Z,7.97
2022-10-31T01:05:11.139Z,8.70
2022-10-31T01:07:39.346Z,7.85
2022-10-31T01:10:10.509Z,8.52
2022-10-31T01:12:45.772Z,8.40
2022-10-31T01:15:16.332Z,7.20
2022-10-31T01:17:43.596Z,7.22
2022-10-31T01:20:15.223Z,7.82
2022-10-31T01:22:42.403Z,7.75
2022-10-31T01:25:10.812Z,8.27
2022-10-31T01:27:37.839Z,7.25
2022-10-31T01:30:08.344Z,7.72
2022-10-31T01:32:35.630Z,6.68
2022-10-31T01:35:02.848Z,8.02
2022-10-31T01:37:31.230Z,6.78
2022-10-31T01:39:58.278Z,6.88
2022-10-31T01:42:25.430Z,7.93
2022-10-31T01:45:00.182Z,7.32
2022-10-31T01:47:48.153Z,3.47
2022-10-31T01:50:37.916Z,7.82
2022-10-31T01:53:08.172Z,7.47
2022-10-31T01:55:39.849Z,7.18
2022-10-31T01:58:12.254Z,7.85
2022-10-31T02:00:40.447Z,6.97
2022-10-31T02:03:07.381Z,7.13
2022-10-31T02:05:34.866Z,7.25
2022-10-31T02:08:16.900Z,7.13
2022-10-31T02:10:45.088Z,3.85
2022-10-31T02:13:13.966Z,3.35
2022-10-31T02:15:50.860Z,3.60
2022-10-31T02:18:19.602Z,6.68
2022-10-31T02:21:22.289Z,6.90
2022-10-31T02:24:07.185Z,7.05
2022-10-31T02:26:38.463Z,6.68
2022-10-31T02:29:20.589Z,6.97
2022-10-31T02:32:38.859Z,6.55
2022-10-31T02:35:38.337Z,6.88
2022-10-31T02:38:17.413Z,7.43
2022-10-31T02:40:50.223Z,4.38
2022-10-31T02:43:40.032Z,2.67
2022-10-31T02:46:27.734Z,6.60
2022-10-31T02:49:00.462Z,6.22
2022-10-31T02:51:28.118Z,6.10
2022-10-31T02:53:55.082Z,6.38
2022-10-31T02:56:22.162Z,6.22
2022-10-31T02:58:56.557Z,6.57
2022-10-31T03:01:30.056Z,4.75
2022-10-31T03:04:00.197Z,6.10
2022-10-31T03:06:30.526Z,4.15
2022-10-31T03:09:16.692Z,6.25
2022-10-31T03:12:07.993Z,6.13
2022-10-31T03:15:18.128Z,6.70
2022-10-31T03:17:54.591Z,6.97
2022-10-31T03:20:28.696Z,5.78
2022-10-31T03:22:56.812Z,5.82
2022-10-31T03:25:24.505Z,3.42
2022-10-31T03:27:56.299Z,2.92
2022-10-31T03:30:23.691Z,7.22
2022-10-31T03:33:00.917Z,5.88
2022-10-31T03:35:31.114Z,3.42
2022-10-31T03:38:05.545Z,3.00
2022-10-31T03:40:37.914Z,6.38
2022-10-31T03:43:12.910Z,5.82
2022-10-31T03:45:46.211Z,7.50
2022-10-31T03:48:15.613Z,6.40
2022-10-31T03:51:01.404Z,7.45
2022-10-31T03:53:33.785Z,6.85
2022-10-31T03:56:06.240Z,6.55
2022-10-31T03:58:41.865Z,5.70
2022-10-31T04:03:42.083Z,5.47
2022-10-31T04:06:15.591Z,6.15
2022-10-31T04:08:57.171Z,6.38
2022-10-31T04:11:29.336Z,6.47
2022-10-31T04:14:28.640Z,6.10
2022-10-31T04:16:57.073Z,5.78
2022-10-31T04:19:30.617Z,5.53
2022-10-31T04:21:57.592Z,5.47
2022-10-31T04:24:24.511Z,6.25
2022-10-31T04:26:51.507Z,5.43
2022-10-31T04:29:21.156Z,5.82
2022-10-31T04:31:48.197Z,5.30
2022-10-31T04:34:15.176Z,5.30
2022-10-31T04:36:42.654Z,5.90
2022-10-31T04:39:09.584Z,5.05
2022-10-31T04:41:45.625Z,5.63
2022-10-31T04:44:16.611Z,5.80
2022-10-31T04:46:46.361Z,5.43
2022-10-31T04:49:13.709Z,5.57
2022-10-31T04:51:41.275Z,5.63
2022-10-31T04:54:09.578Z,5.25
2022-10-31T04:56:56.812Z,5.38
2022-10-31T04:59:24.109Z,5.93
2022-10-31T05:01:54.941Z,5.43
2022-10-31T05:04:31.836Z,5.65
2022-10-31T05:06:58.828Z,5.43
2022-10-31T05:09:25.893Z,2.88
2022-10-31T05:11:53.552Z,2.30
2022-10-31T05:14:49.946Z,5.40
2022-10-31T05:17:56.289Z,3.45
2022-10-31T05:20:42.121Z,2.58
2022-10-31T05:23:26.158Z,6.00
2022-10-31T05:25:54.092Z,5.80
2022-10-31T05:28:21.501Z,6.03
2022-10-31T05:30:48.430Z,5.43
2022-10-31T05:33:16.621Z,3.05
2022-10-31T05:36:02.154Z,3.10
2022-10-31T05:38:35.748Z,3.22
2022-10-31T05:41:11.975Z,3.15
2022-10-31T05:43:42.724Z,2.25
2022-10-31T05:46:10.472Z,3.35
2022-10-31T05:48:58.713Z,2.90
2022-10-31T05:51:47.587Z,5.80
2022-10-31T05:54:16.043Z,5.40
2022-10-31T05:56:45.388Z,5.88
2022-10-31T05:59:12.753Z,5.97
2022-10-31T06:01:40.588Z,6.18
2022-10-31T06:04:19.414Z,6.32
2022-10-31T06:06:46.462Z,6.07
2022-10-31T06:09:13.445Z,2.95
2022-10-31T06:11:40.678Z,2.83
2022-10-31T06:14:27.505Z,3.60
2022-10-31T06:16:56.974Z,3.60
2022-10-31T06:19:44.183Z,6.72
2022-10-31T06:22:15.475Z,6.25
2022-10-31T06:24:43.647Z,6.45
2022-10-31T06:27:28.605Z,5.72
2022-10-31T06:29:56.523Z,6.22
2022-10-31T06:32:35.215Z,6.93
2022-10-31T06:35:02.143Z,3.22
2022-10-31T06:37:29.456Z,4.10
2022-10-31T06:40:03.563Z,3.28
2022-10-31T06:42:43.909Z,2.97
2022-10-31T06:45:11.003Z,2.67
2022-10-31T06:51:15.919Z,2.03
2022-10-31T06:53:42.958Z,7.20
2022-10-31T06:56:12.237Z,7.43
2022-10-31T06:58:45.372Z,7.40
2022-10-31T07:01:13.855Z,6.93
2022-10-31T07:03:40.938Z,6.97
2022-10-31T07:06:08.442Z,8.95
2022-10-31T07:08:35.569Z,9.63
2022-10-31T07:11:02.636Z,8.07
2022-10-31T07:13:30.783Z,8.23
2022-10-31T07:16:05.571Z,7.43
2022-10-31T07:18:35.091Z,4.78
2022-10-31T07:21:02.923Z,2.95
2022-10-31T07:23:29.934Z,2.55
2022-10-31T07:26:17.093Z,7.25
2022-10-31T07:28:48.305Z,7.63
2022-10-31T07:31:17.844Z,7.65
2022-10-31T07:34:03.809Z,8.07
2022-10-31T07:36:51.471Z,8.38
2022-10-31T07:39:18.499Z,7.22
2022-10-31T07:41:46.504Z,7.78
2022-10-31T07:44:18.001Z,4.50
2022-10-31T07:47:20.493Z,5.28
2022-10-31T07:50:06.701Z,10.25
2022-10-31T07:53:06.445Z,8.40
2022-10-31T07:55:53.668Z,9.73
2022-10-31T07:58:20.617Z,9.25
2022-10-31T08:00:48.805Z,11.57
2022-10-31T08:03:28.701Z,7.82
2022-10-31T08:06:10.749Z,8.27
2022-10-31T08:09:08.076Z,6.82
2022-10-31T08:11:35.045Z,7.45
2022-10-31T08:14:03.054Z,8.32
2022-10-31T08:16:30.025Z,8.43
2022-10-31T08:19:01.254Z,7.53
2022-10-31T08:21:30.111Z,7.60
2022-10-31T08:23:58.857Z,7.20
2022-10-31T08:26:26.326Z,8.43
2022-10-31T08:28:55.811Z,8.13
2022-10-31T08:31:32.929Z,7.32
2022-10-31T08:34:19.337Z,9.18
2022-10-31T08:37:04.652Z,7.88
2022-10-31T08:39:39.977Z,7.72
2022-10-31T08:42:07.045Z,8.20
2022-10-31T08:44:34.065Z,7.55
2022-10-31T08:47:01.061Z,8.40
2022-10-31T08:49:28.049Z,8.48
2022-10-31T08:51:54.955Z,8.82
2022-10-31T08:54:21.929Z,7.78
2022-10-31T08:56:56.454Z,8.57
2022-10-31T08:59:49.729Z,8.18
2022-10-31T09:02:25.199Z,9.70
2022-10-31T09:04:57.204Z,8.65
2022-10-31T09:07:24.164Z,8.95
2022-10-31T09:09:51.109Z,8.07
2022-10-31T09:12:19.763Z,9.40
2022-10-31T09:15:25.572Z,8.90
2022-10-31T09:18:14.485Z,9.32
2022-10-31T09:23:28.695Z,8.90
2022-10-31T09:25:56.611Z,9.80
2022-10-31T09:28:45.822Z,9.23
2022-10-31T09:31:14.490Z,9.95
2022-10-31T09:33:50.508Z,9.18
2022-10-31T09:36:44.105Z,9.68
2022-10-31T09:39:23.203Z,8.88
2022-10-31T09:42:17.512Z,9.05
2022-10-31T09:44:47.469Z,8.82
2022-10-31T09:48:30.176Z,9.02
2022-10-31T09:51:24.221Z,9.52
2022-10-31T09:54:06.246Z,7.60
2022-10-31T09:56:33.558Z,7.88
2022-10-31T09:59:03.550Z,8.52
2022-10-31T10:01:50.243Z,8.40
2022-10-31T10:04:37.357Z,7.97
2022-10-31T10:07:40.468Z,7.97
2022-10-31T10:10:15.029Z,7.70
2022-10-31T10:13:19.201Z,7.78
2022-10-31T10:15:49.214Z,7.65
2022-10-31T10:18:34.898Z,8.55
2022-10-31T10:21:19.654Z,10.57
2022-10-31T10:24:12.952Z,8.07
2022-10-31T10:26:44.748Z,8.27
2022-10-31T10:29:17.620Z,8.57
2022-10-31T10:31:48.050Z,8.90
2022-10-31T10:34:23.373Z,8.82
2022-10-31T10:36:57.482Z,9.07
2022-10-31T10:39:37.523Z,8.60
2022-10-31T10:42:34.112Z,9.52
2022-10-31T10:45:32.678Z,9.07
2022-10-31T10:48:44.107Z,8.80
2022-10-31T10:54:45.942Z,9.23
2022-10-31T10:57:24.022Z,9.27
2022-10-31T10:59:52.796Z,9.63
2022-10-31T11:02:32.739Z,9.23
2022-10-31T11:05:02.162Z,8.88
2022-10-31T11:07:42.225Z,9.70
2022-10-31T11:10:17.024Z,9.68
2022-10-31T11:12:46.868Z,9.68
2022-10-31T11:15:23.808Z,8.98
2022-10-31T11:17:53.635Z,9.73
2022-10-31T11:20:20.779Z,9.43
2022-10-31T11:22:49.285Z,9.07
2022-10-31T11:25:25.710Z,9.20
2022-10-31T11:28:04.227Z,10.18
2022-10-31T11:30:36.625Z,12.00
2022-10-31T11:33:04.758Z,11.73
2022-10-31T11:35:31.800Z,11.80
2022-10-31T11:38:01.555Z,10.55
2022-10-31T11:40:28.954Z,10.20
2022-10-31T11:43:00.043Z,10.27
2022-10-31T11:45:32.273Z,12.90
2022-10-31T11:48:02.147Z,11.52
2022-10-31T11:50:40.280Z,11.93
2022-10-31T11:53:18.068Z,12.32
2022-10-31T11:55:46.573Z,12.63
2022-10-31T11:58:25.210Z,12.65
2022-10-31T12:00:55.870Z,15.57
2022-10-31T12:03:55.251Z,13.82
2022-10-31T12:06:28.092Z,15.45
2022-10-31T12:08:55.349Z,15.02
2022-10-31T12:11:31.120Z,16.35
2022-10-31T12:14:20.413Z,16.95
2022-10-31T12:17:01.206Z,17.95
2022-10-31T12:19:56.336Z,16.45
2022-10-31T12:22:42.123Z,17.42
2022-10-31T12:25:41.276Z,17.42
2022-10-31T12:28:08.146Z,17.92
2022-10-31T12:30:56.669Z,17.02
2022-10-31T12:33:59.454Z,15.95
2022-10-31T12:37:00.024Z,18.13
2022-10-31T12:39:57.887Z,16.95
2022-10-31T12:42:43.290Z,17.52
2022-10-31T12:45:28.746Z,18.10
2022-10-31T12:48:20.152Z,16.95
2022-10-31T12:51:04.473Z,16.48
2022-10-31T12:53:46.342Z,15.75
2022-10-31T12:56:25.338Z,17.58
2022-10-31T12:59:04.510Z,14.32
2022-10-31T13:01:49.094Z,15.02
2022-10-31T13:04:25.521Z,13.32
2022-10-31T13:06:59.141Z,13.52
2022-10-31T13:09:40.945Z,14.23
2022-10-31T13:12:17.584Z,13.55
2022-10-31T13:14:52.669Z,12.32
2022-10-31T13:17:32.625Z,12.50
2022-10-31T13:20:33.845Z,11.30
2022-10-31T13:23:50.563Z,10.90
2022-10-31T13:26:39.366Z,11.10
2022-10-31T13:29:27.033Z,11.23
2022-10-31T13:31:57.095Z,11.95
2022-10-31T13:34:31.493Z,11.77
2022-10-31T13:37:06.735Z,10.95
2022-10-31T13:40:01.839Z,10.93
2022-10-31T13:42:44.007Z,23.75
2022-10-31T13:45:19.756Z,11.07
2022-10-31T13:47:58.722Z,10.40
2022-10-31T13:50:31.805Z,11.07
2022-10-31T13:53:14.004Z,9.52
2022-10-31T13:55:44.306Z,9.38
2022-10-31T13:58:27.875Z,8.13
2022-10-31T14:01:00.788Z,9.88
2022-10-31T14:03:57.446Z,9.68
2022-10-31T14:06:17.056Z,8.50
2022-10-31T14:08:51.236Z,8.68
2022-10-31T14:11:29.358Z,8.95
2022-10-31T14:14:01.875Z,7.97
2022-10-31T14:16:31.605Z,9.07
2022-10-31T14:19:20.864Z,8.95
2022-10-31T14:21:51.911Z,8.25
2022-10-31T14:24:24.973Z,8.70
2022-10-31T14:27:01.445Z,7.60
2022-10-31T14:29:33.404Z,9.23
2022-10-31T14:32:15.507Z,10.38
2022-10-31T14:34:51.454Z,9.13
2022-10-31T14:37:41.043Z,9.13
2022-10-31T14:40:19.891Z,8.45
2022-10-31T14:43:19.101Z,8.95
2022-10-31T14:46:12.737Z,8.60
2022-10-31T14:49:10.543Z,8.90
2022-10-31T14:51:45.171Z,8.57
2022-10-31T14:54:35.153Z,8.63
2022-10-31T14:57:31.552Z,8.60
2022-10-31T15:00:08.429Z,8.85
2022-10-31T15:02:39.730Z,8.52
2022-10-31T15:05:11.669Z,7.85
2022-10-31T15:07:53.323Z,7.55
2022-10-31T15:10:23.557Z,7.18
2022-10-31T15:12:50.746Z,7.35
2022-10-31T15:15:26.759Z,6.72
2022-10-31T15:17:59.947Z,5.88
2022-10-31T15:20:32.107Z,6.20
2022-10-31T15:23:00.626Z,5.22
2022-10-31T15:25:34.269Z,5.30
2022-10-31T15:28:01.553Z,5.15
2022-10-31T15:30:30.263Z,5.93
2022-10-31T15:32:59.213Z,6.05
2022-10-31T15:35:31.589Z,6.60
2022-10-31T15:38:00.523Z,7.82
2022-10-31T15:40:29.077Z,9.80
2022-10-31T15:43:05.587Z,11.65
2022-10-31T15:45:32.816Z,8.02
2022-10-31T15:48:19.303Z,7.53
2022-10-31T15:50:56.241Z,6.90
2022-10-31T15:53:37.671Z,7.00
2022-10-31T15:56:09.436Z,6.70
2022-10-31T15:58:47.065Z,7.20
2022-10-31T16:01:40.413Z,6.00
2022-10-31T16:04:13.704Z,6.82
2022-10-31T16:06:40.676Z,7.15
2022-10-31T16:09:24.588Z,7.18
2022-10-31T16:11:52.029Z,6.65
2022-10-31T16:14:25.756Z,12.43
2022-10-31T16:16:55.517Z,38.55
2022-10-31T16:19:32.357Z,8.82
2022-10-31T16:22:13.180Z,7.88
2022-10-31T16:24:48.736Z,7.82
2022-10-31T16:27:24.221Z,6.80
2022-10-31T16:29:51.276Z,7.25
2022-10-31T16:32:54.829Z,6.75
2022-10-31T16:35:37.853Z,7.30
2022-10-31T16:38:05.901Z,6.97
2022-10-31T16:40:33.875Z,7.22
2022-10-31T16:43:02.387Z,7.70
2022-10-31T16:45:32.301Z,7.32
2022-10-31T16:48:10.664Z,7.43
2022-10-31T16:50:38.578Z,7.88
2022-10-31T16:53:13.845Z,7.60
2022-10-31T16:55:46.043Z,7.63
2022-10-31T16:58:30.700Z,7.57
2022-10-31T17:00:58.468Z,7.53
2022-10-31T17:03:25.609Z,7.82
2022-10-31T17:05:52.980Z,8.35
2022-10-31T17:08:20.008Z,8.73
2022-10-31T17:10:50.897Z,9.13
2022-10-31T17:13:22.589Z,8.18
2022-10-31T17:15:53.327Z,8.07
2022-10-31T17:18:24.433Z,8.68
2022-10-31T17:21:03.175Z,7.72
2022-10-31T17:23:30.415Z,9.45
2022-10-31T17:25:57.696Z,10.10
2022-10-31T17:28:26.628Z,8.57
2022-10-31T17:30:55.603Z,8.68
2022-10-31T17:33:22.801Z,8.27
2022-10-31T17:35:50.051Z,8.48
2022-10-31T17:38:16.964Z,8.13
2022-10-31T17:40:44.139Z,9.93
2022-10-31T17:43:12.251Z,9.45
2022-10-31T17:45:40.926Z,10.10
2022-10-31T17:48:10.949Z,9.23
2022-10-31T17:50:37.904Z,9.73
2022-10-31T17:53:05.014Z,9.43
2022-10-31T17:55:36.140Z,10.52
2022-10-31T17:58:04.943Z,14.75
2022-10-31T18:00:32.104Z,13.52
2022-10-31T18:02:59.675Z,13.05
2022-10-31T18:05:26.902Z,10.88
2022-10-31T18:07:54.206Z,11.82
2022-10-31T18:10:21.168Z,11.23
2022-10-31T18:12:50.796Z,11.65
2022-10-31T18:15:17.940Z,13.27
2022-10-31T18:17:45.727Z,11.88
2022-10-31T18:20:12.896Z,12.32
2022-10-31T18:22:39.831Z,12.45
2022-10-31T18:25:07.088Z,12.93
2022-10-31T18:27:34.010Z,13.13
2022-10-31T18:30:00.965Z,12.77
2022-10-31T18:32:27.933Z,13.10
2022-10-31T18:34:54.900Z,13.73
2022-10-31T18:37:21.969Z,14.45
2022-10-31T18:39:48.953Z,14.95
2022-10-31T18:42:15.869Z,15.07
2022-10-31T18:44:42.823Z,14.95
2022-10-31T18:47:09.754Z,13.63
2022-10-31T18:49:36.756Z,14.30
2022-10-31T18:52:04.722Z,12.27
2022-10-31T18:54:31.714Z,11.57
2022-10-31T18:56:58.701Z,11.98
2022-10-31T18:59:25.702Z,12.13
2022-10-31T19:01:52.824Z,12.75
2022-10-31T19:04:19.893Z,12.80
2022-10-31T19:06:46.902Z,13.15
2022-10-31T19:09:13.962Z,13.00
2022-10-31T19:11:40.860Z,12.90
2022-10-31T19:14:11.107Z,18.05
2022-10-31T19:16:38.123Z,17.00
2022-10-31T19:19:05.420Z,16.13
2022-10-31T19:21:32.546Z,15.20
2022-10-31T19:24:00.856Z,14.05
2022-10-31T19:26:28.757Z,13.30
2022-10-31T19:28:56.747Z,13.70
2022-10-31T19:31:24.777Z,13.27
2022-10-31T19:33:51.788Z,14.30
2022-10-31T19:36:20.007Z,14.20
2022-10-31T19:38:49.518Z,13.75
2022-10-31T19:41:22.232Z,15.00
2022-10-31T19:43:49.920Z,14.10
2022-10-31T19:46:28.009Z,14.07
2022-10-31T19:49:05.841Z,15.35
2022-10-31T19:51:32.809Z,15.02
2022-10-31T19:53:59.757Z,14.77
2022-10-31T19:56:26.749Z,14.60
2022-10-31T19:58:53.700Z,13.95
2022-10-31T20:01:23.378Z,14.68
2022-10-31T20:03:51.237Z,14.48
2022-10-31T20:06:27.766Z,14.50
2022-10-31T20:08:58.489Z,12.98
2022-10-31T20:11:27.111Z,13.65
2022-10-31T20:13:58.593Z,15.32
2022-10-31T20:16:27.091Z,15.10
2022-10-31T20:18:54.864Z,14.00
2022-10-31T20:21:25.022Z,14.52
2022-10-31T20:24:00.628Z,13.43
2022-10-31T20:26:28.863Z,14.90
2022-10-31T20:28:57.036Z,15.65
2022-10-31T20:31:26.869Z,19.13
2022-10-31T20:33:55.720Z,21.00
2022-10-31T20:36:23.360Z,18.15
2022-10-31T20:38:52.208Z,29.95
2022-10-31T20:41:19.597Z,22.17
2022-10-31T20:43:47.031Z,15.80
2022-10-31T20:46:21.891Z,14.45
2022-10-31T20:48:49.208Z,15.02
2022-10-31T20:51:21.895Z,14.07
2022-10-31T20:53:50.362Z,15.30
2022-10-31T20:56:20.184Z,14.88
2022-10-31T20:58:47.513Z,14.63
2022-10-31T21:01:19.936Z,14.77
2022-10-31T21:03:47.587Z,15.02
2022-10-31T21:06:15.310Z,14.98
2022-10-31T21:08:43.522Z,15.00
2022-10-31T21:11:12.935Z,14.45
2022-10-31T21:13:42.782Z,15.00
2022-10-31T21:16:14.616Z,15.57
2022-10-31T21:18:42.868Z,15.35
2022-10-31T21:21:17.721Z,14.27
2022-10-31T21:23:45.000Z,8.13
2022-10-31T21:26:19.109Z,14.82
2022-10-31T21:28:46.036Z,15.40
2022-10-31T21:31:16.374Z,13.82
2022-10-31T21:33:44.211Z,14.02
2022-10-31T21:36:12.481Z,13.65
2022-10-31T21:38:39.813Z,13.52
2022-10-31T21:41:09.925Z,13.90
2022-10-31T21:43:38.833Z,13.80
2022-10-31T21:46:07.801Z,13.88
2022-10-31T21:48:39.104Z,13.13
2022-10-31T21:51:09.020Z,14.57
2022-10-31T21:53:55.338Z,15.05
2022-10-31T21:56:23.223Z,13.68
2022-10-31T21:58:51.239Z,14.07
2022-10-31T22:01:19.159Z,14.95
2022-10-31T22:03:46.192Z,13.85
2022-10-31T22:06:13.652Z,12.63
2022-10-31T22:08:41.081Z,11.93
2022-10-31T22:11:10.840Z,11.93
2022-10-31T22:13:37.846Z,11.30
2022-10-31T22:16:07.521Z,11.82
2022-10-31T22:18:35.041Z,13.70
2022-10-31T22:21:07.945Z,12.68
2022-10-31T22:23:35.518Z,13.30
2022-10-31T22:26:14.433Z,12.35
2022-10-31T22:28:42.890Z,13.93
2022-10-31T22:31:13.148Z,13.23
2022-10-31T22:33:40.844Z,13.05
2022-10-31T22:36:13.874Z,12.50
2022-10-31T22:38:41.831Z,12.82
2022-10-31T22:41:12.803Z,11.02
2022-10-31T22:43:40.223Z,11.32
2022-10-31T22:46:10.288Z,11.27
2022-10-31T22:48:46.431Z,11.93
2022-10-31T22:51:16.178Z,12.20
2022-10-31T22:53:44.496Z,12.10
2022-10-31T22:56:13.778Z,11.13
2022-10-31T22:58:41.069Z,12.35
2022-10-31T23:01:16.926Z,11.65
2022-10-31T23:03:44.861Z,12.02
2022-10-31T23:06:14.734Z,13.02
2022-10-31T23:08:42.628Z,12.68
2022-10-31T23:11:27.468Z,13.77
2022-10-31T23:14:09.297Z,12.88
2022-10-31T23:16:37.448Z,13.35
2022-10-31T23:19:08.388Z,13.82
2022-10-31T23:21:58.945Z,12.82
2022-10-31T23:24:37.933Z,13.00
2022-10-31T23:27:10.335Z,13.00
2022-10-31T23:29:57.721Z,11.73
2022-10-31T23:32:36.747Z,12.10
2022-10-31T23:35:06.495Z,12.73
2022-10-31T23:37:35.253Z,12.13
2022-10-31T23:40:02.682Z,12.02
2022-10-31T23:42:29.696Z,11.40
2022-10-31T23:44:56.940Z,11.82
2022-10-31T23:47:24.147Z,10.50
2022-10-31T23:49:51.280Z,12.05
2022-10-31T23:52:18.713Z,11.38
2022-10-31T23:54:45.616Z,11.48
2022-10-31T23:57:14.020Z,11.13
2022-10-31T23:59:40.980Z,12.23
